M/V MiSS Mary Jean — WDG3633 — position and weather

sailwx.info

Track history (hours):
 
Tides and Currents Weather Stations Pressure Air Temp Water Temp Dewpoint Dewpoint Depression Visibility Wind Speed Wind Dir Waves Ship Positions

M/V MiSS Mary Jean

Owner: D&S Marine Service, LLC, Houma, LA. More information available from US FCC via Universal Licensing System and Coast Guard Vessel Documentation Center.

Last reported at 2017-Nov-09 00:33 UTC. Time now 2017-Nov-22 03:41 UTC.
Position N 29°30' W 094°52'.
Warning: this ship's position is 13 days out of date.

Length 113 m; draft 3.2 m.

Type: . MMSI: 367528080.

Date/timePositionNaut miles runAvg speedWind from/ knotsBaromVisibWave heightAir tempDewpointWater temp
2017-Nov-09 00:33N 29°30' W 094°52'0 5.9
2017-Nov-09 00:30N 29°30' W 094°52'3 5.9
2017-Nov-09 00:00N 29°32' W 094°54'3 6.0
2017-Nov-08 23:30N 29°35' W 094°56'3 6.3
2017-Nov-08 23:00N 29°38' W 094°58'3 6.8
2017-Nov-08 22:30N 29°41' W 094°59'3 6.2
2017-Nov-08 21:58N 29°44' W 095°01'4 6.0
2017-Nov-08 21:19N 29°46' W 095°05'1 0.1
2017-Nov-08 10:58N 29°45' W 095°06'0 0.0
2017-Nov-08 05:37N 29°45' W 095°06'0 0.0
2017-Nov-08 05:28N 29°45' W 095°06'0 0.0
2017-Nov-08 04:36N 29°45' W 095°06'0 0.1
2017-Nov-08 04:22N 29°45' W 095°06'0 0.1
2017-Nov-08 03:47N 29°45' W 095°06'0 0.3
2017-Nov-08 03:30N 29°45' W 095°06'1 0.9
2017-Nov-08 02:48N 29°45' W 095°06'2 3.5
2017-Nov-08 02:19N 29°45' W 095°04'2 5.4
2017-Nov-08 01:54N 29°44' W 095°02'2 4.5
2017-Nov-08 01:29N 29°42' W 095°01'3 5.9
2017-Nov-08 01:00N 29°40' W 094°58'3 6.7
2017-Nov-08 00:30N 29°37' W 094°57'3 6.7
2017-Nov-08 00:00N 29°34' W 094°55'51 3.3
2017-Nov-07 08:28N 29°49' W 093°59'  
Track history (hours):
 
Tides and Currents Weather Stations Pressure Air Temp Water Temp Dewpoint Dewpoint Depression Visibility Wind Speed Wind Dir Waves Ship Positions

M/V MiSS Mary Jean

Owner: D&S Marine Service, LLC, Houma, LA. More information available from US FCC via Universal Licensing System and Coast Guard Vessel Documentation Center.

Last reported at 2017-Nov-09 00:33 UTC. Time now 2017-Nov-22 03:41 UTC.
Position N 29°30' W 094°52'.
Warning: this ship's position is 13 days out of date.

Length 113 m; draft 3.2 m.

Type: . MMSI: 367528080.

Date/timePositionNaut miles runAvg speedWind from/ knotsBaromVisibWave heightAir tempDewpointWater temp
2017-Nov-09 00:33N 29°30' W 094°52'0 5.9
2017-Nov-09 00:30N 29°30' W 094°52'3 5.9
2017-Nov-09 00:00N 29°32' W 094°54'3 6.0
2017-Nov-08 23:30N 29°35' W 094°56'3 6.3
2017-Nov-08 23:00N 29°38' W 094°58'3 6.8
2017-Nov-08 22:30N 29°41' W 094°59'3 6.2
2017-Nov-08 21:58N 29°44' W 095°01'4 6.0
2017-Nov-08 21:19N 29°46' W 095°05'1 0.1
2017-Nov-08 10:58N 29°45' W 095°06'0 0.0
2017-Nov-08 05:37N 29°45' W 095°06'0 0.0
2017-Nov-08 05:28N 29°45' W 095°06'0 0.0
2017-Nov-08 04:36N 29°45' W 095°06'0 0.1
2017-Nov-08 04:22N 29°45' W 095°06'0 0.1
2017-Nov-08 03:47N 29°45' W 095°06'0 0.3
2017-Nov-08 03:30N 29°45' W 095°06'1 0.9
2017-Nov-08 02:48N 29°45' W 095°06'2 3.5
2017-Nov-08 02:19N 29°45' W 095°04'2 5.4
2017-Nov-08 01:54N 29°44' W 095°02'2 4.5
2017-Nov-08 01:29N 29°42' W 095°01'3 5.9
2017-Nov-08 01:00N 29°40' W 094°58'3 6.7
2017-Nov-08 00:30N 29°37' W 094°57'3 6.7
2017-Nov-08 00:00N 29°34' W 094°55'51 3.3
2017-Nov-07 08:28N 29°49' W 093°59'  

Dump ship's entire track history